Time;durP1;ratioP1;P1;durP2;ratioP2;P2;SDS_P1;SDS_P2;PMS_P1;PMS_P2;Temp;Humidity;BMP_temperature;BMP_pressure;BME280_temperature;BME280_humidity;BME280_pressure;Samples;Min_cycle;Max_cycle;Signal;HPM_P1;HPM_P2
2023/03/11 00:00:22;;;;;;;;;;;;;;;5.25;50.86;96209.50;5024205;28;19913;-79
2023/03/11 00:02:48;;;;;;;;;;;;;;;5.21;50.03;96211.00;5005261;28;19918;-79
2023/03/11 00:05:21;;;;;;;;;;;;;;;4.94;50.08;96200.50;4996168;28;19920;-79
2023/03/11 00:07:46;;;;;;;;;;;;;;;4.93;49.46;96210.00;5020587;28;19917;-79
2023/03/11 00:10:16;;;;;;;;;;;;;;;5.03;49.77;96204.25;5011768;28;20394;-80
2023/03/11 00:12:41;;;;;;;;;;;;;;;5.14;49.79;96198.25;5021952;28;20029;-79
2023/03/11 00:15:06;;;;;;;;;;;;;;;5.10;49.22;96204.09;5010054;28;20046;-80
2023/03/11 00:17:32;;;;;;;;;;;;;;;4.90;48.72;96202.75;5024885;28;19913;-78
2023/03/11 00:19:57;;;;;;;;;;;;;;;4.85;48.42;96211.19;5010331;28;20402;-79
2023/03/11 00:22:22;;;;;;;;;;;;;;;4.89;47.91;96193.44;5026497;28;19921;-80
2023/03/11 00:24:47;;;;;;;;;;;;;;;4.96;48.46;96213.94;5012187;28;20371;-78
2023/03/11 00:27:13;;;;;;;;;;;;;;;5.00;48.45;96208.09;5003796;28;19923;-79
2023/03/11 00:29:38;;;;;;;;;;;;;;;4.80;48.59;96197.41;5027721;28;19913;-80
2023/03/11 00:32:03;;;;;;;;;;;;;;;4.85;48.36;96205.25;5040844;28;19920;-79
2023/03/11 00:34:29;;;;;;;;;;;;;;;4.82;48.31;96218.59;5006386;28;19913;-80
2023/03/11 00:36:54;;;;;;;;;;;;;;;4.97;48.06;96208.56;5024672;28;20383;-80
2023/03/11 00:39:19;;;;;;;;;;;;;;;5.00;48.99;96222.78;5020082;28;19913;-80
2023/03/11 00:41:45;;;;;;;;;;;;;;;4.76;47.83;96227.25;5027050;28;20266;-80
2023/03/11 00:44:11;;;;;;;;;;;;;;;4.80;49.76;96223.22;5023241;28;19940;-80
2023/03/11 00:46:36;;;;;;;;;;;;;;;4.97;49.56;96218.88;5011200;28;20403;-79
2023/03/11 00:49:02;;;;;;;;;;;;;;;4.83;47.96;96215.78;5027076;28;19913;-80
2023/03/11 00:51:28;;;;;;;;;;;;;;;4.86;47.55;96217.13;5002666;28;19913;-80
2023/03/11 00:53:53;;;;;;;;;;;;;;;4.68;48.81;96213.72;5000501;28;20273;-79
2023/03/11 00:56:18;;;;;;;;;;;;;;;4.82;49.82;96227.09;5007910;28;19920;-80
2023/03/11 00:58:44;;;;;;;;;;;;;;;4.73;48.03;96219.97;5026104;28;19964;-79
2023/03/11 01:01:11;;;;;;;;;;;;;;;4.85;48.50;96236.19;5023548;28;19924;-79
2023/03/11 01:03:36;;;;;;;;;;;;;;;4.87;49.05;96254.81;5019601;28;19960;-80
2023/03/11 01:06:02;;;;;;;;;;;;;;;4.92;47.66;96241.19;5027112;28;19913;-80
2023/03/11 01:08:28;;;;;;;;;;;;;;;4.97;48.83;96224.03;5022184;28;19921;-80
2023/03/11 01:10:54;;;;;;;;;;;;;;;4.83;47.34;96233.03;5004754;28;19967;-79
2023/03/11 01:13:19;;;;;;;;;;;;;;;4.88;47.85;96236.50;5025431;28;19973;-79
2023/03/11 01:15:44;;;;;;;;;;;;;;;4.56;48.48;96223.28;5018333;28;19928;-79
2023/03/11 01:18:10;;;;;;;;;;;;;;;4.51;48.17;96215.47;5007989;28;19943;-79
2023/03/11 01:20:35;;;;;;;;;;;;;;;4.72;48.39;96205.53;5009995;28;19917;-79
2023/03/11 01:23:01;;;;;;;;;;;;;;;4.65;48.59;96201.28;4988490;28;19968;-78
2023/03/11 01:25:26;;;;;;;;;;;;;;;4.72;48.09;96202.94;5007726;28;19928;-80
2023/03/11 01:27:51;;;;;;;;;;;;;;;4.66;47.94;96215.75;5005589;28;20332;-79
2023/03/11 01:30:18;;;;;;;;;;;;;;;4.58;48.34;96216.09;5001801;28;19913;-80
2023/03/11 01:32:43;;;;;;;;;;;;;;;4.64;48.69;96214.41;5012937;28;19913;-80
2023/03/11 01:35:11;;;;;;;;;;;;;;;4.66;48.66;96233.00;4997074;28;20673;-79
2023/03/11 01:37:36;;;;;;;;;;;;;;;4.67;48.10;96219.09;5004052;28;19917;-80
2023/03/11 01:40:01;;;;;;;;;;;;;;;4.71;49.33;96222.78;5009852;28;19919;-79
2023/03/11 01:42:26;;;;;;;;;;;;;;;4.70;48.46;96244.44;5026928;28;19960;-78
2023/03/11 01:44:52;;;;;;;;;;;;;;;4.72;47.97;96264.84;5026222;28;20261;-79
2023/03/11 01:47:29;;;;;;;;;;;;;;;4.64;49.15;96256.44;4993981;28;20002;-79
2023/03/11 01:49:54;;;;;;;;;;;;;;;4.62;48.58;96261.03;5033933;28;19916;-79
2023/03/11 01:52:19;;;;;;;;;;;;;;;4.68;47.75;96260.13;5010217;28;19921;-79
2023/03/11 01:54:44;;;;;;;;;;;;;;;4.67;48.75;96270.66;4992370;28;19913;-80
2023/03/11 01:57:11;;;;;;;;;;;;;;;4.56;48.71;96263.72;5008419;28;19917;-79
2023/03/11 01:59:38;;;;;;;;;;;;;;;4.50;48.75;96255.91;5024046;28;20526;-80
2023/03/11 02:02:18;;;;;;;;;;;;;;;4.57;48.40;96242.88;5037806;22;21124;-78
2023/03/11 02:04:43;;;;;;;;;;;;;;;4.51;49.08;96251.53;4999829;28;19948;-77
2023/03/11 02:07:09;;;;;;;;;;;;;;;4.51;49.12;96238.66;5006525;28;19917;-77
2023/03/11 02:09:34;;;;;;;;;;;;;;;4.46;49.31;96233.41;4974772;28;20288;-76
2023/03/11 02:12:00;;;;;;;;;;;;;;;4.48;49.04;96236.53;5006003;28;19910;-78
2023/03/11 02:14:25;;;;;;;;;;;;;;;4.44;48.88;96243.16;4970011;28;19970;-77
2023/03/11 02:16:51;;;;;;;;;;;;;;;4.46;49.33;96231.59;4985631;28;19914;-78
2023/03/11 02:19:26;;;;;;;;;;;;;;;4.44;49.29;96238.78;5013263;28;19913;-77
2023/03/11 02:21:51;;;;;;;;;;;;;;;4.34;50.13;96235.22;4974856;28;20348;-77
2023/03/11 02:24:36;;;;;;;;;;;;;;;4.39;49.85;96251.56;5006535;28;19917;-78
2023/03/11 02:27:06;;;;;;;;;;;;;;;4.45;49.08;96247.28;4987180;28;19944;-77
2023/03/11 02:29:31;;;;;;;;;;;;;;;4.45;49.52;96232.59;5006188;28;19909;-78
2023/03/11 02:31:56;;;;;;;;;;;;;;;4.43;48.74;96231.28;4991768;28;20479;-77
2023/03/11 02:34:29;;;;;;;;;;;;;;;4.30;49.33;96227.16;5008153;28;19920;-76
2023/03/11 02:36:54;;;;;;;;;;;;;;;4.29;48.81;96223.78;4975284;28;19967;-77
2023/03/11 02:39:55;;;;;;;;;;;;;;;4.29;49.45;96233.31;4989450;28;19991;-78
2023/03/11 02:42:27;;;;;;;;;;;;;;;4.22;49.36;96225.72;4937175;28;20000;-75
2023/03/11 02:44:57;;;;;;;;;;;;;;;4.23;49.83;96235.03;4966819;28;19964;-77
2023/03/11 02:47:22;;;;;;;;;;;;;;;4.20;50.23;96235.47;4945300;28;19916;-77
2023/03/11 02:49:48;;;;;;;;;;;;;;;4.28;49.99;96229.97;4946802;28;19914;-78
2023/03/11 02:52:13;;;;;;;;;;;;;;;4.25;49.88;96242.50;4941199;28;19910;-78
2023/03/11 02:54:38;;;;;;;;;;;;;;;4.24;50.21;96249.44;4951003;28;19932;-77
2023/03/11 02:57:03;;;;;;;;;;;;;;;4.19;50.71;96249.34;4950728;28;19968;-78
2023/03/11 02:59:29;;;;;;;;;;;;;;;4.16;53.20;96254.16;4931450;29;20140;-77
2023/03/11 03:01:54;;;;;;;;;;;;;;;4.22;51.52;96251.47;4941266;28;19914;-77
2023/03/11 03:04:19;;;;;;;;;;;;;;;4.13;52.43;96256.19;4945911;28;19930;-77
2023/03/11 03:06:45;;;;;;;;;;;;;;;4.10;53.77;96256.66;4963781;28;20009;-77
2023/03/11 03:09:10;;;;;;;;;;;;;;;4.04;53.04;96252.38;4963683;28;20326;-77
2023/03/11 03:11:35;;;;;;;;;;;;;;;3.98;53.17;96257.66;4951096;28;19922;-77
2023/03/11 03:14:01;;;;;;;;;;;;;;;4.04;53.72;96254.19;4947346;28;19922;-74
2023/03/11 03:16:26;;;;;;;;;;;;;;;3.90;53.78;96264.69;4978481;28;19960;-74
2023/03/11 03:18:51;;;;;;;;;;;;;;;4.01;52.25;96263.16;4990452;28;19914;-74
2023/03/11 03:21:17;;;;;;;;;;;;;;;4.11;51.10;96265.16;4973771;28;19967;-75
2023/03/11 03:23:42;;;;;;;;;;;;;;;4.09;51.58;96267.94;4988246;28;19925;-75
2023/03/11 03:26:08;;;;;;;;;;;;;;;4.12;50.27;96272.66;5003934;28;19956;-76
2023/03/11 03:28:33;;;;;;;;;;;;;;;4.15;50.99;96268.06;5008323;28;20415;-75
2023/03/11 03:31:02;;;;;;;;;;;;;;;4.16;51.26;96275.56;4989893;28;19938;-74
2023/03/11 03:33:28;;;;;;;;;;;;;;;4.20;50.75;96268.97;4988329;28;20383;-74
2023/03/11 03:35:53;;;;;;;;;;;;;;;4.19;51.53;96269.97;5003420;28;19921;-73
2023/03/11 03:38:18;;;;;;;;;;;;;;;4.11;51.25;96272.88;5014655;28;20315;-74
2023/03/11 03:40:47;;;;;;;;;;;;;;;4.19;51.31;96279.50;4974116;28;19913;-73
2023/03/11 03:43:12;;;;;;;;;;;;;;;4.16;51.86;96269.63;5005595;28;19972;-73
2023/03/11 03:45:37;;;;;;;;;;;;;;;4.17;52.16;96269.41;4993798;28;20412;-73
2023/03/11 03:48:03;;;;;;;;;;;;;;;4.12;51.88;96269.28;5008803;28;19936;-74
2023/03/11 03:50:28;;;;;;;;;;;;;;;4.08;52.45;96271.53;5009969;28;19959;-73
2023/03/11 03:52:53;;;;;;;;;;;;;;;4.04;53.33;96277.38;5005415;28;20372;-74
2023/03/11 03:55:18;;;;;;;;;;;;;;;3.86;54.28;96275.69;4992672;28;19921;-74
2023/03/11 03:57:44;;;;;;;;;;;;;;;3.73;54.97;96292.13;5010353;28;19920;-74
2023/03/11 04:00:09;;;;;;;;;;;;;;;3.67;54.65;96282.72;5010130;28;20395;-73
2023/03/11 04:02:34;;;;;;;;;;;;;;;3.60;55.23;96289.75;4990868;28;19918;-74
2023/03/11 04:05:00;;;;;;;;;;;;;;;3.56;55.24;96292.78;5009437;28;19995;-74
2023/03/11 04:07:25;;;;;;;;;;;;;;;3.47;55.36;96294.09;4993308;28;19920;-75
2023/03/11 04:09:50;;;;;;;;;;;;;;;3.54;55.05;96299.16;4992530;28;19917;-74
2023/03/11 04:12:19;;;;;;;;;;;;;;;3.48;55.62;96302.59;4990218;28;19928;-74
2023/03/11 04:14:44;;;;;;;;;;;;;;;3.41;55.68;96300.13;5005728;28;19913;-74
2023/03/11 04:17:10;;;;;;;;;;;;;;;3.37;55.77;96306.72;5008646;28;20436;-74
2023/03/11 04:19:36;;;;;;;;;;;;;;;3.46;55.18;96302.03;4973479;28;19914;-73
2023/03/11 04:22:01;;;;;;;;;;;;;;;3.41;54.84;96301.91;5020951;28;20351;-76
2023/03/11 04:24:26;;;;;;;;;;;;;;;3.44;55.41;96302.25;5009495;28;19928;-74
2023/03/11 04:26:51;;;;;;;;;;;;;;;3.35;56.22;96303.56;5005508;28;19956;-74
2023/03/11 04:29:17;;;;;;;;;;;;;;;3.35;55.73;96298.44;5012701;28;19913;-74
2023/03/11 04:31:42;;;;;;;;;;;;;;;3.31;56.51;96295.50;4991562;28;19914;-74
2023/03/11 04:34:07;;;;;;;;;;;;;;;3.25;56.56;96295.59;4990787;28;19972;-73
2023/03/11 04:36:33;;;;;;;;;;;;;;;3.29;56.30;96304.44;4974216;28;19952;-74
2023/03/11 04:38:58;;;;;;;;;;;;;;;3.29;56.54;96315.53;4989916;28;19963;-74
2023/03/11 04:41:23;;;;;;;;;;;;;;;3.29;56.54;96315.53;5008188;28;20019;-73
2023/03/11 04:43:48;;;;;;;;;;;;;;;3.25;55.71;96316.97;4974067;28;20387;-74
2023/03/11 04:46:14;;;;;;;;;;;;;;;3.21;56.63;96325.34;5008056;28;19920;-75
2023/03/11 04:48:39;;;;;;;;;;;;;;;3.19;56.47;96320.41;5010008;28;19920;-76
2023/03/11 04:51:04;;;;;;;;;;;;;;;3.17;57.05;96330.91;4992773;28;19956;-76
2023/03/11 04:53:29;;;;;;;;;;;;;;;3.19;56.63;96331.47;4992839;28;19936;-76
2023/03/11 04:55:55;;;;;;;;;;;;;;;3.22;57.56;96334.63;5009099;28;19921;-77
2023/03/11 04:58:21;;;;;;;;;;;;;;;3.18;56.94;96319.63;5009146;28;19928;-76
2023/03/11 05:00:46;;;;;;;;;;;;;;;3.20;56.20;96324.53;5009200;28;19917;-77
2023/03/11 05:03:12;;;;;;;;;;;;;;;3.15;55.76;96316.69;5007833;28;19921;-76
2023/03/11 05:05:37;;;;;;;;;;;;;;;3.19;55.69;96308.34;5007281;28;19917;-73
2023/03/11 05:08:02;;;;;;;;;;;;;;;3.23;55.75;96320.75;5006715;28;19913;-74
2023/03/11 05:10:28;;;;;;;;;;;;;;;3.15;55.81;96314.13;4991183;28;20289;-74
2023/03/11 05:12:53;;;;;;;;;;;;;;;3.15;54.95;96302.06;4989758;28;19920;-74
2023/03/11 05:15:18;;;;;;;;;;;;;;;3.06;55.58;96310.28;5008101;28;19913;-74
2023/03/11 05:17:43;;;;;;;;;;;;;;;3.03;55.81;96308.16;5007385;28;20300;-73
2023/03/11 05:20:09;;;;;;;;;;;;;;;2.97;56.65;96317.53;5007402;28;19918;-73
2023/03/11 05:22:35;;;;;;;;;;;;;;;2.87;57.66;96320.59;5004913;28;19914;-74
2023/03/11 05:25:00;;;;;;;;;;;;;;;2.80;57.06;96325.81;4988863;28;19913;-74
2023/03/11 05:27:25;;;;;;;;;;;;;;;2.76;57.36;96334.16;5007530;28;19913;-74
2023/03/11 05:29:51;;;;;;;;;;;;;;;2.73;57.49;96330.25;4991661;28;20004;-74
2023/03/11 05:32:18;;;;;;;;;;;;;;;2.63;58.80;96337.69;4990928;28;19921;-74
2023/03/11 05:34:43;;;;;;;;;;;;;;;2.63;58.71;96335.13;5007188;28;19913;-73
2023/03/11 05:37:08;;;;;;;;;;;;;;;2.57;59.32;96333.38;4988029;28;20012;-74
2023/03/11 05:39:34;;;;;;;;;;;;;;;2.42;59.06;96326.03;5007611;28;19913;-74
2023/03/11 05:41:59;;;;;;;;;;;;;;;2.51;59.43;96341.97;4988423;28;19952;-74
2023/03/11 05:44:24;;;;;;;;;;;;;;;2.54;59.33;96344.13;4989914;28;19925;-73
2023/03/11 05:46:49;;;;;;;;;;;;;;;2.55;58.67;96332.81;5007843;28;20470;-74
2023/03/11 05:49:15;;;;;;;;;;;;;;;2.48;58.85;96332.09;4989752;28;19936;-73
2023/03/11 05:51:40;;;;;;;;;;;;;;;2.43;59.17;96332.75;4987860;28;19920;-74
2023/03/11 05:54:10;;;;;;;;;;;;;;;2.39;58.39;96332.38;4968662;28;20008;-73
2023/03/11 05:56:35;;;;;;;;;;;;;;;2.35;58.68;96338.94;4990332;28;19913;-74
2023/03/11 05:59:00;;;;;;;;;;;;;;;2.37;58.74;96346.44;4991359;28;20291;-75
2023/03/11 06:01:26;;;;;;;;;;;;;;;2.39;59.61;96347.78;4990177;28;19917;-75
2023/03/11 06:03:51;;;;;;;;;;;;;;;2.39;58.80;96355.50;4989804;28;19925;-74
2023/03/11 06:06:16;;;;;;;;;;;;;;;2.40;58.78;96361.44;5005835;28;19935;-74
2023/03/11 06:08:48;;;;;;;;;;;;;;;2.37;58.96;96360.06;4986333;28;20005;-75
2023/03/11 06:11:13;;;;;;;;;;;;;;;2.38;59.20;96361.66;4994464;28;19924;-75
2023/03/11 06:13:38;;;;;;;;;;;;;;;2.40;59.78;96366.59;4988711;28;19960;-75
2023/03/11 06:16:04;;;;;;;;;;;;;;;2.44;59.40;96368.50;4990090;28;19944;-76
2023/03/11 06:18:29;;;;;;;;;;;;;;;2.53;59.00;96363.09;5007383;28;19956;-75
2023/03/11 06:20:56;;;;;;;;;;;;;;;2.66;58.67;96369.88;4989938;28;19964;-75
2023/03/11 06:23:22;;;;;;;;;;;;;;;2.75;57.61;96371.94;5005344;28;20012;-75
2023/03/11 06:25:57;;;;;;;;;;;;;;;2.93;57.53;96372.94;4984396;28;20380;-75
2023/03/11 06:28:22;;;;;;;;;;;;;;;3.03;57.36;96375.78;5002063;28;19918;-76
2023/03/11 06:30:47;;;;;;;;;;;;;;;3.09;57.42;96374.94;4976015;28;19913;-75
2023/03/11 06:33:13;;;;;;;;;;;;;;;3.04;58.42;96386.88;4986045;28;19928;-75
2023/03/11 06:35:39;;;;;;;;;;;;;;;2.98;57.97;96394.47;4971860;28;20340;-75
2023/03/11 06:38:04;;;;;;;;;;;;;;;3.11;58.02;96390.16;4988458;28;19917;-75
2023/03/11 06:40:29;;;;;;;;;;;;;;;3.17;57.16;96397.00;4989289;28;19964;-75
2023/03/11 06:42:55;;;;;;;;;;;;;;;3.29;57.21;96394.47;4995089;28;19952;-75
2023/03/11 06:45:20;;;;;;;;;;;;;;;3.30;56.87;96396.84;4986906;28;20324;-75
2023/03/11 06:47:45;;;;;;;;;;;;;;;3.28;56.37;96392.94;5003763;28;19921;-76
2023/03/11 06:50:11;;;;;;;;;;;;;;;3.25;56.07;96404.44;4987173;28;20369;-76
2023/03/11 06:52:36;;;;;;;;;;;;;;;3.32;56.10;96399.19;5005663;28;19955;-76
2023/03/11 06:55:02;;;;;;;;;;;;;;;3.33;55.87;96400.78;4989469;28;20005;-76
2023/03/11 06:57:29;;;;;;;;;;;;;;;3.35;56.18;96403.91;4999707;28;19914;-76
2023/03/11 06:59:55;;;;;;;;;;;;;;;3.55;56.00;96409.59;5005579;28;20389;-76
2023/03/11 07:02:20;;;;;;;;;;;;;;;3.73;55.51;96403.59;5005887;28;19921;-75
2023/03/11 07:04:47;;;;;;;;;;;;;;;3.79;56.07;96407.09;4987608;28;20288;-76
2023/03/11 07:07:13;;;;;;;;;;;;;;;3.85;55.76;96410.59;5005100;28;19917;-77
2023/03/11 07:09:38;;;;;;;;;;;;;;;3.98;55.34;96422.50;4997251;28;20008;-76
2023/03/11 07:12:03;;;;;;;;;;;;;;;4.07;53.83;96411.63;4989242;28;19913;-76
2023/03/11 07:14:29;;;;;;;;;;;;;;;4.26;53.17;96420.06;4970613;28;20390;-75
2023/03/11 07:16:54;;;;;;;;;;;;;;;4.31;52.67;96430.50;4995149;28;19920;-76
2023/03/11 07:19:19;;;;;;;;;;;;;;;4.48;52.36;96435.00;5004867;28;19921;-76
2023/03/11 07:21:44;;;;;;;;;;;;;;;4.61;50.87;96431.41;5024984;28;20389;-76
2023/03/11 07:24:11;;;;;;;;;;;;;;;4.76;50.72;96436.13;5009153;28;19921;-76
2023/03/11 07:26:36;;;;;;;;;;;;;;;4.66;50.61;96428.94;4993790;28;19921;-75
2023/03/11 07:29:01;;;;;;;;;;;;;;;4.78;50.23;96444.41;5010537;28;19913;-76
2023/03/11 07:31:28;;;;;;;;;;;;;;;5.05;50.01;96453.28;4994401;28;19923;-76
2023/03/11 07:33:55;;;;;;;;;;;;;;;5.13;50.29;96459.09;5006491;28;19997;-76
2023/03/11 07:36:22;;;;;;;;;;;;;;;5.04;50.83;96459.44;5002169;28;19933;-75
2023/03/11 07:38:47;;;;;;;;;;;;;;;5.11;49.43;96463.72;5006159;28;20403;-75
2023/03/11 07:41:13;;;;;;;;;;;;;;;5.24;49.64;96461.66;5010648;28;19914;-76
2023/03/11 07:43:39;;;;;;;;;;;;;;;5.42;49.50;96476.19;4994095;28;19982;-76
2023/03/11 07:46:17;;;;;;;;;;;;;;;5.47;48.48;96479.88;4992562;28;20261;-75
2023/03/11 07:48:43;;;;;;;;;;;;;;;5.49;48.75;96481.22;4977093;28;20435;-76
2023/03/11 07:51:12;;;;;;;;;;;;;;;5.62;48.78;96482.75;4978405;28;19968;-76
2023/03/11 07:53:39;;;;;;;;;;;;;;;5.59;49.06;96488.41;5006414;28;19917;-76
2023/03/11 07:56:05;;;;;;;;;;;;;;;5.84;48.07;96497.63;5006928;28;19921;-76
2023/03/11 07:58:30;;;;;;;;;;;;;;;5.81;47.47;96497.09;4999852;28;19913;-75
2023/03/11 08:00:55;;;;;;;;;;;;;;;5.77;48.88;96495.19;4962380;28;19921;-76
2023/03/11 08:03:24;;;;;;;;;;;;;;;6.19;47.43;96494.94;4992958;28;19971;-75
2023/03/11 08:05:49;;;;;;;;;;;;;;;6.36;46.26;96500.13;5005802;28;19921;-76
2023/03/11 08:08:14;;;;;;;;;;;;;;;6.43;46.86;96500.00;4989630;28;20348;-76
2023/03/11 08:10:41;;;;;;;;;;;;;;;6.68;46.04;96497.81;4990918;28;19913;-76
2023/03/11 08:13:06;;;;;;;;;;;;;;;6.71;46.94;96504.28;4990557;28;19924;-76
2023/03/11 08:15:31;;;;;;;;;;;;;;;7.04;44.53;96503.50;4993460;28;20146;-77
2023/03/11 08:17:57;;;;;;;;;;;;;;;7.00;44.02;96509.38;4989563;28;20013;-75
2023/03/11 08:20:22;;;;;;;;;;;;;;;7.09;43.37;96505.34;5006967;28;20137;-76
2023/03/11 08:22:47;;;;;;;;;;;;;;;6.64;45.23;96514.78;4979755;28;19921;-75
2023/03/11 08:25:12;;;;;;;;;;;;;;;6.32;47.16;96517.13;4990245;28;20288;-76
2023/03/11 08:27:39;;;;;;;;;;;;;;;6.56;46.74;96510.00;4991181;28;19960;-76
2023/03/11 08:30:05;;;;;;;;;;;;;;;7.19;44.65;96517.66;5005760;28;19960;-75
2023/03/11 08:32:30;;;;;;;;;;;;;;;7.47;43.06;96520.09;4989785;28;19920;-76
2023/03/11 08:34:56;;;;;;;;;;;;;;;7.55;42.89;96518.91;5008789;28;19914;-76
2023/03/11 08:37:21;;;;;;;;;;;;;;;7.52;43.17;96524.56;5004204;28;20373;-76
2023/03/11 08:39:46;;;;;;;;;;;;;;;7.21;42.88;96523.38;4988634;28;20304;-74
2023/03/11 08:42:11;;;;;;;;;;;;;;;6.59;46.03;96526.88;4992446;28;19913;-75
2023/03/11 08:44:37;;;;;;;;;;;;;;;6.85;44.81;96534.00;4991805;28;19926;-77
2023/03/11 08:47:02;;;;;;;;;;;;;;;7.12;44.45;96533.34;5003866;28;19924;-75
2023/03/11 08:49:27;;;;;;;;;;;;;;;6.92;44.49;96526.88;4977751;28;20385;-75
2023/03/11 08:51:53;;;;;;;;;;;;;;;6.84;45.08;96519.50;4993063;28;19917;-76
2023/03/11 08:54:18;;;;;;;;;;;;;;;7.41;43.19;96522.88;4975927;28;19913;-76
2023/03/11 08:56:43;;;;;;;;;;;;;;;7.75;41.77;96533.91;4988858;28;19920;-76
2023/03/11 08:59:08;;;;;;;;;;;;;;;8.10;40.04;96531.94;4990336;28;20444;-76
2023/03/11 09:01:34;;;;;;;;;;;;;;;8.15;39.66;96524.22;5006906;28;19917;-76
2023/03/11 09:03:59;;;;;;;;;;;;;;;8.16;38.38;96528.38;4976774;28;19970;-76
2023/03/11 09:06:24;;;;;;;;;;;;;;;8.00;39.85;96528.22;4957603;28;19933;-76
2023/03/11 09:08:50;;;;;;;;;;;;;;;7.32;43.46;96536.22;4989508;28;20012;-73
2023/03/11 09:11:16;;;;;;;;;;;;;;;7.46;43.45;96538.47;4982384;28;19914;-75
2023/03/11 09:13:41;;;;;;;;;;;;;;;7.86;42.30;96535.59;4991503;28;20222;-76
2023/03/11 09:16:17;;;;;;;;;;;;;;;8.33;41.47;96533.44;4975460;28;19944;-76
2023/03/11 09:18:43;;;;;;;;;;;;;;;8.27;41.26;96535.22;5008265;28;19913;-75
2023/03/11 09:21:08;;;;;;;;;;;;;;;7.69;39.69;96532.28;4982628;28;19930;-74
2023/03/11 09:23:34;;;;;;;;;;;;;;;7.10;40.14;96533.59;4989014;28;19917;-74
2023/03/11 09:25:59;;;;;;;;;;;;;;;7.38;39.94;96534.47;4988419;28;20003;-74
2023/03/11 09:28:24;;;;;;;;;;;;;;;7.39;39.00;96537.88;5005463;28;19936;-74
2023/03/11 09:30:49;;;;;;;;;;;;;;;7.24;38.87;96534.03;4973464;28;19944;-73
2023/03/11 09:33:15;;;;;;;;;;;;;;;7.05;39.12;96532.75;4957949;28;19967;-73
2023/03/11 09:35:40;;;;;;;;;;;;;;;6.59;40.67;96542.38;4984498;28;19920;-72
2023/03/11 09:38:05;;;;;;;;;;;;;;;6.70;40.51;96544.09;4990639;28;19924;-73
2023/03/11 09:40:49;;;;;;;;;;;;;;;7.03;40.38;96532.97;4990876;28;19913;-74
2023/03/11 09:43:14;;;;;;;;;;;;;;;7.13;39.01;96533.13;5001054;28;20423;-74
2023/03/11 09:45:41;;;;;;;;;;;;;;;6.61;42.02;96538.53;5008608;28;19917;-74
2023/03/11 09:48:17;;;;;;;;;;;;;;;6.49;40.12;96545.59;4975708;28;19944;-75
2023/03/11 09:50:48;;;;;;;;;;;;;;;6.49;40.81;96543.78;5002287;28;19914;-74
2023/03/11 09:53:17;;;;;;;;;;;;;;;6.88;41.56;96540.50;4997445;28;19967;-74
2023/03/11 09:55:43;;;;;;;;;;;;;;;6.88;41.22;96541.28;5008916;28;20015;-75
2023/03/11 09:58:09;;;;;;;;;;;;;;;7.01;41.11;96541.97;5006459;28;19917;-75
2023/03/11 10:00:35;;;;;;;;;;;;;;;7.24;39.71;96541.81;4967695;28;19944;-75
2023/03/11 10:03:00;;;;;;;;;;;;;;;7.61;39.62;96538.66;4989764;28;19917;-75
2023/03/11 10:05:26;;;;;;;;;;;;;;;8.34;38.65;96535.81;4991300;28;19972;-75
2023/03/11 10:07:53;;;;;;;;;;;;;;;8.27;40.27;96540.41;4984840;28;19913;-75
2023/03/11 10:10:18;;;;;;;;;;;;;;;8.83;35.71;96539.38;4986205;28;19944;-75
2023/03/11 10:12:48;;;;;;;;;;;;;;;8.46;38.28;96540.09;4985723;28;20549;-75
2023/03/11 10:15:18;;;;;;;;;;;;;;;8.09;38.25;96556.28;4975348;28;19913;-74
2023/03/11 10:17:50;;;;;;;;;;;;;;;7.77;36.65;96551.81;4972751;28;19920;-73
2023/03/11 10:20:20;;;;;;;;;;;;;;;7.47;37.20;96558.16;4997865;28;19920;-74
2023/03/11 10:22:49;;;;;;;;;;;;;;;7.17;37.55;96554.13;4956173;28;19914;-73
2023/03/11 10:25:15;;;;;;;;;;;;;;;7.25;37.69;96558.91;4988095;28;20412;-75
2023/03/11 10:28:13;;;;;;;;;;;;;;;7.20;37.98;96561.44;4966251;28;19914;-75
2023/03/11 10:30:38;;;;;;;;;;;;;;;7.74;38.31;96560.06;4987538;28;19914;-75
2023/03/11 10:33:11;;;;;;;;;;;;;;;8.07;39.43;96552.16;5003985;28;19936;-75
2023/03/11 10:35:38;;;;;;;;;;;;;;;8.16;36.77;96534.34;4999400;28;19914;-75
2023/03/11 10:38:20;;;;;;;;;;;;;;;9.00;37.71;96545.22;4987520;28;19994;-75
2023/03/11 10:40:46;;;;;;;;;;;;;;;9.09;34.70;96543.69;4991772;28;19914;-76
2023/03/11 10:43:23;;;;;;;;;;;;;;;9.53;35.26;96550.47;5002062;28;19917;-75
2023/03/11 10:45:49;;;;;;;;;;;;;;;9.42;33.34;96547.00;4990376;28;20024;-76
2023/03/11 10:48:15;;;;;;;;;;;;;;;9.85;36.41;96552.94;5007664;28;20388;-74
2023/03/11 10:50:46;;;;;;;;;;;;;;;10.16;35.65;96547.84;4991315;28;19971;-74
2023/03/11 10:53:13;;;;;;;;;;;;;;;9.72;33.46;96548.19;4987706;28;19920;-74
2023/03/11 10:55:47;;;;;;;;;;;;;;;9.94;32.48;96556.59;4960209;28;19924;-75
2023/03/11 10:58:14;;;;;;;;;;;;;;;10.28;33.85;96547.56;4991546;28;19917;-76
2023/03/11 11:00:39;;;;;;;;;;;;;;;9.56;35.47;96544.72;4989976;28;19917;-76
2023/03/11 11:03:10;;;;;;;;;;;;;;;10.32;32.65;96540.84;4970363;28;19926;-74
2023/03/11 11:05:36;;;;;;;;;;;;;;;10.29;33.49;96552.53;4989837;28;19917;-75
2023/03/11 11:08:06;;;;;;;;;;;;;;;9.85;34.64;96542.53;4978954;28;20018;-76
2023/03/11 11:10:33;;;;;;;;;;;;;;;10.29;35.64;96549.16;5011934;28;19920;-74
2023/03/11 11:12:58;;;;;;;;;;;;;;;10.54;34.48;96548.44;4993976;28;20242;-75
2023/03/11 11:15:25;;;;;;;;;;;;;;;10.99;32.20;96554.69;4991723;28;19917;-75
2023/03/11 11:17:51;;;;;;;;;;;;;;;11.36;29.60;96547.59;5013012;28;19957;-75
2023/03/11 11:20:17;;;;;;;;;;;;;;;11.10;30.70;96546.84;4993167;28;19917;-75
2023/03/11 11:22:50;;;;;;;;;;;;;;;10.89;30.21;96549.47;4993823;28;19914;-75
2023/03/11 11:25:34;;;;;;;;;;;;;;;10.54;30.85;96543.22;4992009;28;20249;-74
2023/03/11 11:28:01;;;;;;;;;;;;;;;11.18;29.85;96541.13;4975000;28;20300;-74
2023/03/11 11:30:27;;;;;;;;;;;;;;;11.39;30.71;96539.25;5003064;28;19936;-74
2023/03/11 11:32:54;;;;;;;;;;;;;;;12.38;29.98;96549.00;4992862;28;19914;-76
2023/03/11 11:35:19;;;;;;;;;;;;;;;13.08;29.87;96542.75;5009148;28;19914;-75
2023/03/11 11:37:46;;;;;;;;;;;;;;;13.23;28.52;96542.59;4993802;28;19921;-75
2023/03/11 11:40:15;;;;;;;;;;;;;;;13.16;29.39;96536.91;4975773;28;19964;-76
2023/03/11 11:42:42;;;;;;;;;;;;;;;13.17;29.57;96537.69;5010501;28;19935;-76
2023/03/11 11:45:26;;;;;;;;;;;;;;;13.58;27.93;96526.84;4993155;28;19921;-75
2023/03/11 11:47:53;;;;;;;;;;;;;;;12.71;30.00;96531.81;4994010;28;19920;-74
2023/03/11 11:50:22;;;;;;;;;;;;;;;12.57;29.80;96533.47;5010490;28;19960;-76
2023/03/11 11:52:57;;;;;;;;;;;;;;;13.42;27.39;96531.47;5008991;28;20459;-76
2023/03/11 11:55:25;;;;;;;;;;;;;;;13.74;27.40;96532.66;5007164;28;19914;-75
2023/03/11 11:57:51;;;;;;;;;;;;;;;13.43;28.18;96528.53;4990828;28;19913;-76
2023/03/11 12:00:20;;;;;;;;;;;;;;;12.79;29.99;96535.66;4958716;28;19936;-75
2023/03/11 12:02:59;;;;;;;;;;;;;;;13.29;28.09;96531.00;4991764;28;19913;-75
2023/03/11 12:05:25;;;;;;;;;;;;;;;13.04;30.59;96536.50;5009606;28;20373;-76
2023/03/11 12:08:00;;;;;;;;;;;;;;;12.73;30.02;96531.53;5010571;28;19921;-75
2023/03/11 12:10:37;;;;;;;;;;;;;;;12.87;29.43;96527.25;4994131;28;19913;-75
2023/03/11 12:13:09;;;;;;;;;;;;;;;14.14;28.18;96514.88;5007024;28;19998;-75
2023/03/11 12:15:55;;;;;;;;;;;;;;;13.81;27.39;96517.38;5010357;28;20007;-76
2023/03/11 12:18:27;;;;;;;;;;;;;;;14.80;29.50;96520.97;5005987;28;20428;-76
2023/03/11 12:20:55;;;;;;;;;;;;;;;15.48;28.07;96519.53;4992864;28;19936;-76
2023/03/11 12:23:47;;;;;;;;;;;;;;;16.21;23.41;96519.66;4989436;28;19925;-75
2023/03/11 12:26:14;;;;;;;;;;;;;;;16.26;23.30;96522.16;4970425;28;19921;-75
2023/03/11 12:28:55;;;;;;;;;;;;;;;16.09;23.01;96528.03;4990602;28;20428;-75
2023/03/11 12:31:22;;;;;;;;;;;;;;;16.43;22.73;96526.00;5005504;28;19921;-75
2023/03/11 12:33:50;;;;;;;;;;;;;;;15.72;25.15;96526.41;4993063;28;19924;-75
2023/03/11 12:36:22;;;;;;;;;;;;;;;15.70;25.13;96528.56;5009703;28;20011;-76
2023/03/11 12:38:47;;;;;;;;;;;;;;;15.76;25.13;96516.91;5003530;28;19917;-76
2023/03/11 12:41:13;;;;;;;;;;;;;;;15.49;25.75;96507.97;4990264;28;19919;-76
2023/03/11 12:43:41;;;;;;;;;;;;;;;15.18;26.80;96502.50;5000111;28;19944;-76
2023/03/11 12:46:10;;;;;;;;;;;;;;;14.78;26.39;96500.31;4990778;28;20289;-76
2023/03/11 12:48:45;;;;;;;;;;;;;;;13.46;28.18;96494.00;4978451;28;20024;-76
2023/03/11 12:51:26;;;;;;;;;;;;;;;12.34;29.05;96508.84;4980707;28;19913;-75
2023/03/11 12:53:51;;;;;;;;;;;;;;;11.56;30.68;96520.69;5003415;28;19926;-76